sensor_id;sensor_type;location;lat;lon;timestamp;temperature;humidity
16846;DHT22;8539;53.188;8.696;2023-07-13T00:02:00;15.40;99.90
16846;DHT22;8539;53.188;8.696;2023-07-13T00:04:27;15.30;99.90
16846;DHT22;8539;53.188;8.696;2023-07-13T00:06:53;15.30;99.90
16846;DHT22;8539;53.188;8.696;2023-07-13T00:09:26;15.30;99.90
16846;DHT22;8539;53.188;8.696;2023-07-13T00:11:55;15.30;99.90
16846;DHT22;8539;53.188;8.696;2023-07-13T00:14:23;15.30;99.90
16846;DHT22;8539;53.188;8.696;2023-07-13T00:16:49;15.30;99.90
16846;DHT22;8539;53.188;8.696;2023-07-13T00:19:21;15.30;99.90
16846;DHT22;8539;53.188;8.696;2023-07-13T00:21:47;15.40;99.90
16846;DHT22;8539;53.188;8.696;2023-07-13T00:24:16;15.40;99.90
16846;DHT22;8539;53.188;8.696;2023-07-13T00:26:44;15.40;99.90
16846;DHT22;8539;53.188;8.696;2023-07-13T00:29:12;15.40;99.90
16846;DHT22;8539;53.188;8.696;2023-07-13T00:31:38;15.40;99.90
16846;DHT22;8539;53.188;8.696;2023-07-13T00:34:13;15.40;99.90
16846;DHT22;8539;53.188;8.696;2023-07-13T00:36:39;15.40;99.90
16846;DHT22;8539;53.188;8.696;2023-07-13T00:39:05;15.40;99.90
16846;DHT22;8539;53.188;8.696;2023-07-13T00:41:32;15.50;99.90
16846;DHT22;8539;53.188;8.696;2023-07-13T00:43:58;15.40;99.90
16846;DHT22;8539;53.188;8.696;2023-07-13T00:46:27;15.40;99.90
16846;DHT22;8539;53.188;8.696;2023-07-13T00:48:56;15.40;99.90
16846;DHT22;8539;53.188;8.696;2023-07-13T00:51:31;15.40;99.90
16846;DHT22;8539;53.188;8.696;2023-07-13T00:54:00;15.40;99.90
16846;DHT22;8539;53.188;8.696;2023-07-13T00:56:28;15.30;99.90
16846;DHT22;8539;53.188;8.696;2023-07-13T00:58:55;15.30;99.90
16846;DHT22;8539;53.188;8.696;2023-07-13T01:01:23;15.30;99.90
16846;DHT22;8539;53.188;8.696;2023-07-13T01:03:49;15.30;99.90
16846;DHT22;8539;53.188;8.696;2023-07-13T01:06:16;15.30;99.90
16846;DHT22;8539;53.188;8.696;2023-07-13T01:08:43;15.30;99.90
16846;DHT22;8539;53.188;8.696;2023-07-13T01:11:09;15.30;99.90
16846;DHT22;8539;53.188;8.696;2023-07-13T01:13:35;15.30;99.90
16846;DHT22;8539;53.188;8.696;2023-07-13T01:16:05;15.30;99.90
16846;DHT22;8539;53.188;8.696;2023-07-13T01:18:37;15.30;99.90
16846;DHT22;8539;53.188;8.696;2023-07-13T01:21:04;15.30;99.90
16846;DHT22;8539;53.188;8.696;2023-07-13T01:23:32;15.30;99.90
16846;DHT22;8539;53.188;8.696;2023-07-13T01:25:59;15.30;99.90
16846;DHT22;8539;53.188;8.696;2023-07-13T01:28:27;15.30;99.90
16846;DHT22;8539;53.188;8.696;2023-07-13T01:30:56;15.30;99.90
16846;DHT22;8539;53.188;8.696;2023-07-13T01:33:22;15.30;99.90
16846;DHT22;8539;53.188;8.696;2023-07-13T01:35:48;15.30;99.90
16846;DHT22;8539;53.188;8.696;2023-07-13T01:38:15;15.30;99.90
16846;DHT22;8539;53.188;8.696;2023-07-13T01:40:42;15.30;99.90
16846;DHT22;8539;53.188;8.696;2023-07-13T01:43:08;15.30;99.90
16846;DHT22;8539;53.188;8.696;2023-07-13T01:45:34;15.00;99.90
16846;DHT22;8539;53.188;8.696;2023-07-13T01:51:08;15.30;99.90
16846;DHT22;8539;53.188;8.696;2023-07-13T01:53:35;15.40;99.90
16846;DHT22;8539;53.188;8.696;2023-07-13T01:56:01;15.80;99.90
16846;DHT22;8539;53.188;8.696;2023-07-13T01:58:27;15.20;99.90
16846;DHT22;8539;53.188;8.696;2023-07-13T02:00:53;15.10;99.90
16846;DHT22;8539;53.188;8.696;2023-07-13T02:03:20;15.10;99.90
16846;DHT22;8539;53.188;8.696;2023-07-13T02:05:46;15.10;99.90
16846;DHT22;8539;53.188;8.696;2023-07-13T02:08:12;15.10;99.90
16846;DHT22;8539;53.188;8.696;2023-07-13T02:10:38;15.10;99.90
16846;DHT22;8539;53.188;8.696;2023-07-13T02:13:06;15.00;99.90
16846;DHT22;8539;53.188;8.696;2023-07-13T02:15:33;15.00;99.90
16846;DHT22;8539;53.188;8.696;2023-07-13T02:17:59;15.00;99.90
16846;DHT22;8539;53.188;8.696;2023-07-13T02:20:25;15.00;99.90
16846;DHT22;8539;53.188;8.696;2023-07-13T02:22:52;14.90;99.90
16846;DHT22;8539;53.188;8.696;2023-07-13T02:25:18;14.90;99.90
16846;DHT22;8539;53.188;8.696;2023-07-13T02:27:45;14.90;99.90
16846;DHT22;8539;53.188;8.696;2023-07-13T02:30:11;14.90;99.90
16846;DHT22;8539;53.188;8.696;2023-07-13T02:32:38;14.90;99.90
16846;DHT22;8539;53.188;8.696;2023-07-13T02:35:04;14.90;99.90
16846;DHT22;8539;53.188;8.696;2023-07-13T02:37:31;14.90;99.90
16846;DHT22;8539;53.188;8.696;2023-07-13T02:39:57;14.90;99.90
16846;DHT22;8539;53.188;8.696;2023-07-13T02:42:23;14.90;99.90
16846;DHT22;8539;53.188;8.696;2023-07-13T02:44:49;14.90;99.90
16846;DHT22;8539;53.188;8.696;2023-07-13T02:47:16;14.90;99.90
16846;DHT22;8539;53.188;8.696;2023-07-13T02:49:42;14.90;99.90
16846;DHT22;8539;53.188;8.696;2023-07-13T02:52:09;14.90;99.90
16846;DHT22;8539;53.188;8.696;2023-07-13T02:54:35;14.90;99.90
16846;DHT22;8539;53.188;8.696;2023-07-13T02:57:01;14.90;99.90
16846;DHT22;8539;53.188;8.696;2023-07-13T02:59:27;14.90;99.90
16846;DHT22;8539;53.188;8.696;2023-07-13T03:02:04;14.80;99.90
16846;DHT22;8539;53.188;8.696;2023-07-13T03:04:30;14.90;99.90
16846;DHT22;8539;53.188;8.696;2023-07-13T03:06:56;14.80;99.90
16846;DHT22;8539;53.188;8.696;2023-07-13T03:09:24;14.80;99.90
16846;DHT22;8539;53.188;8.696;2023-07-13T03:11:54;14.80;99.90
16846;DHT22;8539;53.188;8.696;2023-07-13T03:14:22;14.90;99.90
16846;DHT22;8539;53.188;8.696;2023-07-13T03:16:49;14.90;99.90
16846;DHT22;8539;53.188;8.696;2023-07-13T03:19:15;14.90;99.90
16846;DHT22;8539;53.188;8.696;2023-07-13T03:21:41;15.00;99.90
16846;DHT22;8539;53.188;8.696;2023-07-13T03:24:07;15.00;99.90
16846;DHT22;8539;53.188;8.696;2023-07-13T03:26:34;15.00;99.90
16846;DHT22;8539;53.188;8.696;2023-07-13T03:29:00;15.00;99.90
16846;DHT22;8539;53.188;8.696;2023-07-13T03:31:28;15.00;99.90
16846;DHT22;8539;53.188;8.696;2023-07-13T03:33:56;15.10;99.90
16846;DHT22;8539;53.188;8.696;2023-07-13T03:36:26;15.10;99.90
16846;DHT22;8539;53.188;8.696;2023-07-13T03:38:55;15.10;99.90
16846;DHT22;8539;53.188;8.696;2023-07-13T03:41:22;15.10;99.90
16846;DHT22;8539;53.188;8.696;2023-07-13T03:43:49;15.10;99.90
16846;DHT22;8539;53.188;8.696;2023-07-13T03:46:17;15.00;99.90
16846;DHT22;8539;53.188;8.696;2023-07-13T03:48:45;15.10;99.90
16846;DHT22;8539;53.188;8.696;2023-07-13T03:51:12;15.00;99.90
16846;DHT22;8539;53.188;8.696;2023-07-13T03:53:42;15.00;99.90
16846;DHT22;8539;53.188;8.696;2023-07-13T03:56:16;15.00;99.90
16846;DHT22;8539;53.188;8.696;2023-07-13T03:58:44;15.00;99.90
16846;DHT22;8539;53.188;8.696;2023-07-13T04:01:11;15.00;99.90
16846;DHT22;8539;53.188;8.696;2023-07-13T04:03:38;15.10;99.90
16846;DHT22;8539;53.188;8.696;2023-07-13T04:06:08;15.00;99.90
16846;DHT22;8539;53.188;8.696;2023-07-13T04:08:41;15.10;99.90
16846;DHT22;8539;53.188;8.696;2023-07-13T04:11:07;15.10;99.90
16846;DHT22;8539;53.188;8.696;2023-07-13T04:13:34;15.10;99.90
16846;DHT22;8539;53.188;8.696;2023-07-13T04:16:00;15.10;99.90
16846;DHT22;8539;53.188;8.696;2023-07-13T04:18:27;15.10;99.90
16846;DHT22;8539;53.188;8.696;2023-07-13T04:20:53;15.20;99.90
16846;DHT22;8539;53.188;8.696;2023-07-13T04:23:19;15.20;99.90
16846;DHT22;8539;53.188;8.696;2023-07-13T04:25:46;15.20;99.90
16846;DHT22;8539;53.188;8.696;2023-07-13T04:28:16;15.20;99.90
16846;DHT22;8539;53.188;8.696;2023-07-13T04:30:43;15.30;99.90
16846;DHT22;8539;53.188;8.696;2023-07-13T04:33:10;15.30;99.90
16846;DHT22;8539;53.188;8.696;2023-07-13T04:35:36;15.30;99.90
16846;DHT22;8539;53.188;8.696;2023-07-13T04:38:03;15.30;99.90
16846;DHT22;8539;53.188;8.696;2023-07-13T04:40:29;15.30;99.90
16846;DHT22;8539;53.188;8.696;2023-07-13T04:42:56;15.30;99.90
16846;DHT22;8539;53.188;8.696;2023-07-13T04:45:24;15.40;99.90
16846;DHT22;8539;53.188;8.696;2023-07-13T04:47:50;15.40;99.90
16846;DHT22;8539;53.188;8.696;2023-07-13T04:50:16;15.40;99.90
16846;DHT22;8539;53.188;8.696;2023-07-13T04:52:46;15.40;99.90
16846;DHT22;8539;53.188;8.696;2023-07-13T04:55:13;15.40;99.90
16846;DHT22;8539;53.188;8.696;2023-07-13T04:57:39;15.40;99.90
16846;DHT22;8539;53.188;8.696;2023-07-13T05:00:06;15.50;99.90
16846;DHT22;8539;53.188;8.696;2023-07-13T05:02:33;15.50;99.90
16846;DHT22;8539;53.188;8.696;2023-07-13T05:05:00;15.50;99.90
16846;DHT22;8539;53.188;8.696;2023-07-13T05:07:26;15.50;99.90
16846;DHT22;8539;53.188;8.696;2023-07-13T05:09:52;15.60;99.90
16846;DHT22;8539;53.188;8.696;2023-07-13T05:12:37;15.60;99.90
16846;DHT22;8539;53.188;8.696;2023-07-13T05:15:20;15.60;99.90
16846;DHT22;8539;53.188;8.696;2023-07-13T05:17:48;15.70;99.90
16846;DHT22;8539;53.188;8.696;2023-07-13T05:20:16;15.80;99.90
16846;DHT22;8539;53.188;8.696;2023-07-13T05:22:43;15.80;99.90
16846;DHT22;8539;53.188;8.696;2023-07-13T05:25:09;15.80;99.90
16846;DHT22;8539;53.188;8.696;2023-07-13T05:27:36;15.80;99.90
16846;DHT22;8539;53.188;8.696;2023-07-13T05:30:03;15.80;99.90
16846;DHT22;8539;53.188;8.696;2023-07-13T05:32:30;15.90;99.90
16846;DHT22;8539;53.188;8.696;2023-07-13T05:34:56;15.90;99.90
16846;DHT22;8539;53.188;8.696;2023-07-13T05:37:22;15.90;99.90
16846;DHT22;8539;53.188;8.696;2023-07-13T05:39:48;16.00;99.90
16846;DHT22;8539;53.188;8.696;2023-07-13T05:42:14;16.10;99.90
16846;DHT22;8539;53.188;8.696;2023-07-13T05:44:40;16.10;99.90
16846;DHT22;8539;53.188;8.696;2023-07-13T05:47:06;16.20;99.90
16846;DHT22;8539;53.188;8.696;2023-07-13T05:49:32;16.20;99.90
16846;DHT22;8539;53.188;8.696;2023-07-13T05:51:59;16.30;99.90
16846;DHT22;8539;53.188;8.696;2023-07-13T05:54:25;16.30;99.90
16846;DHT22;8539;53.188;8.696;2023-07-13T05:56:51;16.30;99.90
16846;DHT22;8539;53.188;8.696;2023-07-13T05:59:18;16.40;99.90
16846;DHT22;8539;53.188;8.696;2023-07-13T06:01:44;16.40;99.90
16846;DHT22;8539;53.188;8.696;2023-07-13T06:04:10;16.30;99.90
16846;DHT22;8539;53.188;8.696;2023-07-13T06:06:36;16.30;99.90
16846;DHT22;8539;53.188;8.696;2023-07-13T06:09:02;16.40;99.90
16846;DHT22;8539;53.188;8.696;2023-07-13T06:11:29;16.40;99.90
16846;DHT22;8539;53.188;8.696;2023-07-13T06:13:56;16.50;99.90
16846;DHT22;8539;53.188;8.696;2023-07-13T06:16:22;16.60;99.90
16846;DHT22;8539;53.188;8.696;2023-07-13T06:18:48;16.70;99.90
16846;DHT22;8539;53.188;8.696;2023-07-13T06:21:19;16.80;99.90
16846;DHT22;8539;53.188;8.696;2023-07-13T06:23:47;16.80;99.90
16846;DHT22;8539;53.188;8.696;2023-07-13T06:26:14;16.80;99.90
16846;DHT22;8539;53.188;8.696;2023-07-13T06:28:40;16.90;99.90
16846;DHT22;8539;53.188;8.696;2023-07-13T06:31:08;16.90;99.90
16846;DHT22;8539;53.188;8.696;2023-07-13T06:33:35;16.90;99.90
16846;DHT22;8539;53.188;8.696;2023-07-13T06:36:03;17.00;99.90
16846;DHT22;8539;53.188;8.696;2023-07-13T06:38:30;17.00;99.90
16846;DHT22;8539;53.188;8.696;2023-07-13T06:40:56;17.00;99.90
16846;DHT22;8539;53.188;8.696;2023-07-13T06:43:23;17.10;99.90
16846;DHT22;8539;53.188;8.696;2023-07-13T06:45:51;17.10;99.90
16846;DHT22;8539;53.188;8.696;2023-07-13T06:48:18;17.10;99.90
16846;DHT22;8539;53.188;8.696;2023-07-13T06:50:45;17.10;99.90
16846;DHT22;8539;53.188;8.696;2023-07-13T06:53:12;17.10;99.90
16846;DHT22;8539;53.188;8.696;2023-07-13T06:55:39;17.10;99.90
16846;DHT22;8539;53.188;8.696;2023-07-13T06:58:06;17.10;99.90
16846;DHT22;8539;53.188;8.696;2023-07-13T07:00:32;17.20;99.90
16846;DHT22;8539;53.188;8.696;2023-07-13T07:02:58;17.20;99.90
16846;DHT22;8539;53.188;8.696;2023-07-13T07:05:24;17.30;99.90
16846;DHT22;8539;53.188;8.696;2023-07-13T07:07:52;17.30;99.90
16846;DHT22;8539;53.188;8.696;2023-07-13T07:10:19;17.40;99.90
16846;DHT22;8539;53.188;8.696;2023-07-13T07:12:45;17.40;99.90
16846;DHT22;8539;53.188;8.696;2023-07-13T07:15:12;17.50;99.90
16846;DHT22;8539;53.188;8.696;2023-07-13T07:17:38;17.60;99.90
16846;DHT22;8539;53.188;8.696;2023-07-13T07:20:04;17.70;99.90
16846;DHT22;8539;53.188;8.696;2023-07-13T07:22:30;17.70;99.90
16846;DHT22;8539;53.188;8.696;2023-07-13T07:24:57;17.70;99.90
16846;DHT22;8539;53.188;8.696;2023-07-13T07:27:24;17.80;99.90
16846;DHT22;8539;53.188;8.696;2023-07-13T07:29:50;17.90;99.90
16846;DHT22;8539;53.188;8.696;2023-07-13T07:32:19;17.90;99.90
16846;DHT22;8539;53.188;8.696;2023-07-13T07:34:45;18.00;99.90
16846;DHT22;8539;53.188;8.696;2023-07-13T07:37:13;18.00;99.90
16846;DHT22;8539;53.188;8.696;2023-07-13T07:39:39;18.10;99.90
16846;DHT22;8539;53.188;8.696;2023-07-13T07:42:12;18.10;99.90
16846;DHT22;8539;53.188;8.696;2023-07-13T07:44:40;18.10;99.90
16846;DHT22;8539;53.188;8.696;2023-07-13T07:47:07;18.20;99.90
16846;DHT22;8539;53.188;8.696;2023-07-13T07:49:34;18.30;99.90
16846;DHT22;8539;53.188;8.696;2023-07-13T07:52:00;18.40;99.90
16846;DHT22;8539;53.188;8.696;2023-07-13T07:54:26;18.40;99.90
16846;DHT22;8539;53.188;8.696;2023-07-13T07:56:52;18.50;99.90
16846;DHT22;8539;53.188;8.696;2023-07-13T07:59:19;18.50;99.90
16846;DHT22;8539;53.188;8.696;2023-07-13T08:01:45;18.50;99.90
16846;DHT22;8539;53.188;8.696;2023-07-13T08:04:13;18.50;99.90
16846;DHT22;8539;53.188;8.696;2023-07-13T08:06:39;18.60;99.90
16846;DHT22;8539;53.188;8.696;2023-07-13T08:09:06;18.80;99.90
16846;DHT22;8539;53.188;8.696;2023-07-13T08:11:32;19.00;99.90
16846;DHT22;8539;53.188;8.696;2023-07-13T08:13:58;19.20;99.90
16846;DHT22;8539;53.188;8.696;2023-07-13T08:16:24;19.30;99.90
16846;DHT22;8539;53.188;8.696;2023-07-13T08:18:50;19.30;99.90
16846;DHT22;8539;53.188;8.696;2023-07-13T08:21:16;19.40;99.90
16846;DHT22;8539;53.188;8.696;2023-07-13T08:23:45;19.40;99.90
16846;DHT22;8539;53.188;8.696;2023-07-13T08:26:12;19.50;99.90
16846;DHT22;8539;53.188;8.696;2023-07-13T08:28:38;19.50;99.90
16846;DHT22;8539;53.188;8.696;2023-07-13T08:31:05;19.40;99.90
16846;DHT22;8539;53.188;8.696;2023-07-13T08:33:35;19.50;99.90
16846;DHT22;8539;53.188;8.696;2023-07-13T08:36:01;19.50;99.90
16846;DHT22;8539;53.188;8.696;2023-07-13T08:38:27;19.50;99.90
16846;DHT22;8539;53.188;8.696;2023-07-13T08:40:56;19.50;99.90
16846;DHT22;8539;53.188;8.696;2023-07-13T08:43:34;19.40;99.90
16846;DHT22;8539;53.188;8.696;2023-07-13T08:46:02;19.30;99.90
16846;DHT22;8539;53.188;8.696;2023-07-13T08:48:37;19.40;99.90
16846;DHT22;8539;53.188;8.696;2023-07-13T08:53:51;19.70;99.90
16846;DHT22;8539;53.188;8.696;2023-07-13T08:56:27;19.90;99.90
16846;DHT22;8539;53.188;8.696;2023-07-13T08:59:14;20.00;99.90
16846;DHT22;8539;53.188;8.696;2023-07-13T09:04:36;20.00;99.90
16846;DHT22;8539;53.188;8.696;2023-07-13T09:09:54;20.10;99.90
16846;DHT22;8539;53.188;8.696;2023-07-13T09:13:04;20.20;99.90
16846;DHT22;8539;53.188;8.696;2023-07-13T09:15:40;20.40;99.90
16846;DHT22;8539;53.188;8.696;2023-07-13T09:18:27;20.70;99.90
16846;DHT22;8539;53.188;8.696;2023-07-13T09:23:29;20.90;99.90
16846;DHT22;8539;53.188;8.696;2023-07-13T09:26:10;21.00;99.90
16846;DHT22;8539;53.188;8.696;2023-07-13T09:28:51;21.00;99.90
16846;DHT22;8539;53.188;8.696;2023-07-13T09:31:28;21.00;99.90
16846;DHT22;8539;53.188;8.696;2023-07-13T09:33:57;21.00;99.90
16846;DHT22;8539;53.188;8.696;2023-07-13T09:36:32;21.00;99.90
16846;DHT22;8539;53.188;8.696;2023-07-13T09:42:03;21.30;99.90
16846;DHT22;8539;53.188;8.696;2023-07-13T09:44:37;21.40;99.90
16846;DHT22;8539;53.188;8.696;2023-07-13T09:47:16;21.40;99.90
16846;DHT22;8539;53.188;8.696;2023-07-13T09:49:42;21.30;99.90
16846;DHT22;8539;53.188;8.696;2023-07-13T09:52:15;21.30;99.90
16846;DHT22;8539;53.188;8.696;2023-07-13T09:54:48;21.40;99.90
16846;DHT22;8539;53.188;8.696;2023-07-13T09:57:19;21.50;99.90
16846;DHT22;8539;53.188;8.696;2023-07-13T09:59:48;21.60;99.90
16846;DHT22;8539;53.188;8.696;2023-07-13T10:05:09;21.70;99.90
16846;DHT22;8539;53.188;8.696;2023-07-13T10:07:44;21.90;99.90
16846;DHT22;8539;53.188;8.696;2023-07-13T10:10:22;22.20;99.90
16846;DHT22;8539;53.188;8.696;2023-07-13T10:12:49;22.40;99.90
16846;DHT22;8539;53.188;8.696;2023-07-13T10:15:25;22.50;99.90
16846;DHT22;8539;53.188;8.696;2023-07-13T10:17:53;22.60;99.90
16846;DHT22;8539;53.188;8.696;2023-07-13T10:20:21;22.70;99.90
16846;DHT22;8539;53.188;8.696;2023-07-13T10:25:25;22.60;99.90
16846;DHT22;8539;53.188;8.696;2023-07-13T10:30:48;22.10;99.90
16846;DHT22;8539;53.188;8.696;2023-07-13T10:33:15;21.80;99.90
16846;DHT22;8539;53.188;8.696;2023-07-13T10:35:43;21.50;99.90
16846;DHT22;8539;53.188;8.696;2023-07-13T10:38:21;21.40;99.90
16846;DHT22;8539;53.188;8.696;2023-07-13T10:43:36;21.30;99.90
16846;DHT22;8539;53.188;8.696;2023-07-13T10:46:06;21.20;99.90
16846;DHT22;8539;53.188;8.696;2023-07-13T10:48:33;21.10;99.90
16846;DHT22;8539;53.188;8.696;2023-07-13T10:51:00;20.80;99.90
16846;DHT22;8539;53.188;8.696;2023-07-13T10:53:35;20.50;99.90
16846;DHT22;8539;53.188;8.696;2023-07-13T10:58:41;20.00;99.90
16846;DHT22;8539;53.188;8.696;2023-07-13T11:06:17;19.50;99.90
16846;DHT22;8539;53.188;8.696;2023-07-13T11:15:02;19.30;99.90
16846;DHT22;8539;53.188;8.696;2023-07-13T11:17:53;19.30;99.90
16846;DHT22;8539;53.188;8.696;2023-07-13T11:20:41;19.40;99.90
16846;DHT22;8539;53.188;8.696;2023-07-13T11:25:39;19.50;99.90
16846;DHT22;8539;53.188;8.696;2023-07-13T11:28:17;19.50;99.90
16846;DHT22;8539;53.188;8.696;2023-07-13T11:33:29;19.50;99.90
16846;DHT22;8539;53.188;8.696;2023-07-13T11:38:24;19.40;99.90
16846;DHT22;8539;53.188;8.696;2023-07-13T11:40:54;19.30;99.90
16846;DHT22;8539;53.188;8.696;2023-07-13T11:43:21;19.10;99.90
16846;DHT22;8539;53.188;8.696;2023-07-13T11:45:50;18.90;99.90
16846;DHT22;8539;53.188;8.696;2023-07-13T11:48:26;18.70;99.90
16846;DHT22;8539;53.188;8.696;2023-07-13T11:51:03;18.40;99.90
16846;DHT22;8539;53.188;8.696;2023-07-13T11:53:50;18.30;99.90
16846;DHT22;8539;53.188;8.696;2023-07-13T11:56:17;18.00;99.90
16846;DHT22;8539;53.188;8.696;2023-07-13T11:58:44;17.80;99.90
16846;DHT22;8539;53.188;8.696;2023-07-13T12:01:54;17.70;99.90
16846;DHT22;8539;53.188;8.696;2023-07-13T12:07:29;17.30;99.90
16846;DHT22;8539;53.188;8.696;2023-07-13T12:12:52;17.00;99.90
16846;DHT22;8539;53.188;8.696;2023-07-13T12:15:19;16.80;99.90
16846;DHT22;8539;53.188;8.696;2023-07-13T12:17:46;16.60;99.90
16846;DHT22;8539;53.188;8.696;2023-07-13T12:20:30;16.50;99.90
16846;DHT22;8539;53.188;8.696;2023-07-13T12:22:59;16.40;99.90
16846;DHT22;8539;53.188;8.696;2023-07-13T12:25:27;16.30;99.90
16846;DHT22;8539;53.188;8.696;2023-07-13T12:27:53;16.20;99.90
16846;DHT22;8539;53.188;8.696;2023-07-13T12:30:32;16.20;99.90
16846;DHT22;8539;53.188;8.696;2023-07-13T12:33:11;16.10;99.90
16846;DHT22;8539;53.188;8.696;2023-07-13T12:35:49;16.20;99.90
16846;DHT22;8539;53.188;8.696;2023-07-13T12:38:18;16.20;99.90
16846;DHT22;8539;53.188;8.696;2023-07-13T12:40:49;16.40;99.90
16846;DHT22;8539;53.188;8.696;2023-07-13T12:43:16;16.50;99.90
16846;DHT22;8539;53.188;8.696;2023-07-13T12:46:02;16.70;99.90
16846;DHT22;8539;53.188;8.696;2023-07-13T12:48:38;17.00;99.90
16846;DHT22;8539;53.188;8.696;2023-07-13T12:51:04;17.20;99.90
16846;DHT22;8539;53.188;8.696;2023-07-13T12:53:40;17.50;99.90
16846;DHT22;8539;53.188;8.696;2023-07-13T12:56:18;17.80;99.90
16846;DHT22;8539;53.188;8.696;2023-07-13T12:58:47;18.00;99.90
16846;DHT22;8539;53.188;8.696;2023-07-13T13:01:17;18.30;99.90
16846;DHT22;8539;53.188;8.696;2023-07-13T13:03:49;18.40;99.90
16846;DHT22;8539;53.188;8.696;2023-07-13T13:08:47;18.40;99.90
16846;DHT22;8539;53.188;8.696;2023-07-13T13:11:20;18.40;99.90
16846;DHT22;8539;53.188;8.696;2023-07-13T13:13:46;18.60;99.90
16846;DHT22;8539;53.188;8.696;2023-07-13T13:16:22;18.60;99.90
16846;DHT22;8539;53.188;8.696;2023-07-13T13:18:50;18.70;99.90
16846;DHT22;8539;53.188;8.696;2023-07-13T13:21:18;18.80;99.90
16846;DHT22;8539;53.188;8.696;2023-07-13T13:23:45;18.80;99.90
16846;DHT22;8539;53.188;8.696;2023-07-13T13:26:15;18.80;99.90
16846;DHT22;8539;53.188;8.696;2023-07-13T13:28:45;19.00;99.90
16846;DHT22;8539;53.188;8.696;2023-07-13T13:31:13;19.10;99.90
16846;DHT22;8539;53.188;8.696;2023-07-13T13:33:42;19.40;99.90
16846;DHT22;8539;53.188;8.696;2023-07-13T13:36:18;19.60;99.90
16846;DHT22;8539;53.188;8.696;2023-07-13T13:38:47;19.90;99.90
16846;DHT22;8539;53.188;8.696;2023-07-13T13:41:14;20.10;99.90
16846;DHT22;8539;53.188;8.696;2023-07-13T13:43:42;20.40;99.90
16846;DHT22;8539;53.188;8.696;2023-07-13T13:46:20;20.60;99.90
16846;DHT22;8539;53.188;8.696;2023-07-13T13:48:49;20.70;99.90
16846;DHT22;8539;53.188;8.696;2023-07-13T13:53:43;20.80;99.90
16846;DHT22;8539;53.188;8.696;2023-07-13T13:56:09;20.80;99.90
16846;DHT22;8539;53.188;8.696;2023-07-13T13:58:35;20.70;99.90
16846;DHT22;8539;53.188;8.696;2023-07-13T14:01:02;20.70;99.90
16846;DHT22;8539;53.188;8.696;2023-07-13T14:03:28;20.60;99.90
16846;DHT22;8539;53.188;8.696;2023-07-13T14:05:54;20.60;99.90
16846;DHT22;8539;53.188;8.696;2023-07-13T14:08:23;20.50;99.90
16846;DHT22;8539;53.188;8.696;2023-07-13T14:10:55;20.40;99.90
16846;DHT22;8539;53.188;8.696;2023-07-13T14:13:28;20.30;99.90
16846;DHT22;8539;53.188;8.696;2023-07-13T14:15:56;20.10;99.90
16846;DHT22;8539;53.188;8.696;2023-07-13T14:18:22;20.00;99.90
16846;DHT22;8539;53.188;8.696;2023-07-13T14:20:49;19.80;99.90
16846;DHT22;8539;53.188;8.696;2023-07-13T14:23:18;19.60;99.90
16846;DHT22;8539;53.188;8.696;2023-07-13T14:25:45;19.50;99.90
16846;DHT22;8539;53.188;8.696;2023-07-13T14:30:48;19.10;99.90
16846;DHT22;8539;53.188;8.696;2023-07-13T14:33:14;19.00;99.90
16846;DHT22;8539;53.188;8.696;2023-07-13T14:35:40;18.80;99.90
16846;DHT22;8539;53.188;8.696;2023-07-13T14:38:13;18.50;99.90
16846;DHT22;8539;53.188;8.696;2023-07-13T14:40:39;18.20;99.90
16846;DHT22;8539;53.188;8.696;2023-07-13T14:43:11;17.90;99.90
16846;DHT22;8539;53.188;8.696;2023-07-13T14:45:46;17.60;99.90
16846;DHT22;8539;53.188;8.696;2023-07-13T14:48:23;17.40;99.90
16846;DHT22;8539;53.188;8.696;2023-07-13T14:50:53;17.20;99.90
16846;DHT22;8539;53.188;8.696;2023-07-13T14:53:20;17.00;99.90
16846;DHT22;8539;53.188;8.696;2023-07-13T14:55:46;16.90;99.90
16846;DHT22;8539;53.188;8.696;2023-07-13T14:58:12;16.70;99.90
16846;DHT22;8539;53.188;8.696;2023-07-13T15:00:40;16.60;99.90
16846;DHT22;8539;53.188;8.696;2023-07-13T15:03:30;16.60;99.90
16846;DHT22;8539;53.188;8.696;2023-07-13T15:05:56;16.60;99.90
16846;DHT22;8539;53.188;8.696;2023-07-13T15:08:22;16.60;99.90
16846;DHT22;8539;53.188;8.696;2023-07-13T15:10:49;16.50;99.90
16846;DHT22;8539;53.188;8.696;2023-07-13T15:13:21;16.50;99.90
16846;DHT22;8539;53.188;8.696;2023-07-13T15:15:51;16.40;99.90
16846;DHT22;8539;53.188;8.696;2023-07-13T15:18:21;16.40;99.90
16846;DHT22;8539;53.188;8.696;2023-07-13T15:20:49;16.20;99.90
16846;DHT22;8539;53.188;8.696;2023-07-13T15:23:17;16.20;99.90
16846;DHT22;8539;53.188;8.696;2023-07-13T15:25:44;16.20;99.90
16846;DHT22;8539;53.188;8.696;2023-07-13T15:28:11;16.20;99.90
16846;DHT22;8539;53.188;8.696;2023-07-13T15:30:42;16.20;99.90
16846;DHT22;8539;53.188;8.696;2023-07-13T15:33:20;16.30;99.90
16846;DHT22;8539;53.188;8.696;2023-07-13T15:35:48;16.40;99.90
16846;DHT22;8539;53.188;8.696;2023-07-13T15:38:20;16.30;99.90
16846;DHT22;8539;53.188;8.696;2023-07-13T15:40:47;16.40;99.90
16846;DHT22;8539;53.188;8.696;2023-07-13T15:43:16;16.40;99.90
16846;DHT22;8539;53.188;8.696;2023-07-13T15:45:43;16.40;99.90
16846;DHT22;8539;53.188;8.696;2023-07-13T15:48:15;16.40;99.90
16846;DHT22;8539;53.188;8.696;2023-07-13T15:50:45;16.40;99.90
16846;DHT22;8539;53.188;8.696;2023-07-13T15:53:15;16.00;99.90
16846;DHT22;8539;53.188;8.696;2023-07-13T15:55:44;16.30;99.90
16846;DHT22;8539;53.188;8.696;2023-07-13T15:58:16;16.20;99.90
16846;DHT22;8539;53.188;8.696;2023-07-13T16:00:46;16.20;99.90
16846;DHT22;8539;53.188;8.696;2023-07-13T16:03:15;16.20;99.90
16846;DHT22;8539;53.188;8.696;2023-07-13T16:05:41;16.20;99.90
16846;DHT22;8539;53.188;8.696;2023-07-13T16:08:26;16.20;99.90
16846;DHT22;8539;53.188;8.696;2023-07-13T16:10:53;16.10;99.90
16846;DHT22;8539;53.188;8.696;2023-07-13T16:13:20;16.10;99.90
16846;DHT22;8539;53.188;8.696;2023-07-13T16:15:47;16.10;99.90
16846;DHT22;8539;53.188;8.696;2023-07-13T16:18:14;16.00;99.90
16846;DHT22;8539;53.188;8.696;2023-07-13T16:20:46;16.00;99.90
16846;DHT22;8539;53.188;8.696;2023-07-13T16:23:15;16.00;99.90
16846;DHT22;8539;53.188;8.696;2023-07-13T16:25:41;15.90;99.90
16846;DHT22;8539;53.188;8.696;2023-07-13T16:28:10;15.90;99.90
16846;DHT22;8539;53.188;8.696;2023-07-13T16:30:36;15.90;99.90
16846;DHT22;8539;53.188;8.696;2023-07-13T16:33:04;15.90;99.90
16846;DHT22;8539;53.188;8.696;2023-07-13T16:35:34;15.90;99.90
16846;DHT22;8539;53.188;8.696;2023-07-13T16:38:02;16.00;99.90
16846;DHT22;8539;53.188;8.696;2023-07-13T16:40:31;16.10;99.90
16846;DHT22;8539;53.188;8.696;2023-07-13T16:42:59;16.10;99.90
16846;DHT22;8539;53.188;8.696;2023-07-13T16:45:27;16.30;99.90
16846;DHT22;8539;53.188;8.696;2023-07-13T16:47:57;16.40;99.90
16846;DHT22;8539;53.188;8.696;2023-07-13T16:50:25;16.50;99.90
16846;DHT22;8539;53.188;8.696;2023-07-13T16:52:53;16.70;99.90
16846;DHT22;8539;53.188;8.696;2023-07-13T16:55:21;16.80;99.90
16846;DHT22;8539;53.188;8.696;2023-07-13T16:57:55;16.80;99.90
16846;DHT22;8539;53.188;8.696;2023-07-13T17:00:27;16.80;99.90